createdAt,value
2022-08-04T00:00:15.934Z,28.10
2022-08-04T00:03:14.457Z,27.70
2022-08-04T00:06:02.873Z,27.60
2022-08-04T00:08:49.966Z,27.50
2022-08-04T00:11:23.307Z,27.60
2022-08-04T00:14:05.637Z,27.50
2022-08-04T00:16:37.711Z,27.50
2022-08-04T00:19:30.739Z,27.50
2022-08-04T00:22:03.087Z,27.50
2022-08-04T00:24:31.695Z,27.50
2022-08-04T00:27:00.427Z,28.10
2022-08-04T00:29:28.561Z,27.50
2022-08-04T00:31:57.955Z,27.40
2022-08-04T00:34:29.498Z,27.40
2022-08-04T00:36:57.658Z,27.30
2022-08-04T00:39:26.373Z,27.30
2022-08-04T00:42:03.414Z,27.20
2022-08-04T00:44:48.580Z,27.20
2022-08-04T00:47:55.154Z,27.20
2022-08-04T00:50:51.226Z,27.20
2022-08-04T00:53:31.387Z,27.20
2022-08-04T00:56:16.810Z,27.10
2022-08-04T00:59:09.189Z,27.10
2022-08-04T01:02:01.825Z,27.00
2022-08-04T01:04:50.273Z,27.00
2022-08-04T01:07:44.818Z,27.00
2022-08-04T01:10:47.974Z,27.00
2022-08-04T01:13:33.317Z,26.90
2022-08-04T01:16:03.448Z,26.90
2022-08-04T01:18:37.187Z,26.90
2022-08-04T01:21:26.343Z,26.80
2022-08-04T01:24:15.095Z,26.80
2022-08-04T01:27:07.748Z,26.70
2022-08-04T01:29:46.771Z,26.70
2022-08-04T01:32:25.372Z,26.60
2022-08-04T01:35:21.652Z,26.60
2022-08-04T01:37:55.531Z,26.50
2022-08-04T01:40:24.059Z,26.50
2022-08-04T01:42:54.066Z,27.10
2022-08-04T01:45:24.829Z,26.50
2022-08-04T01:47:55.245Z,26.50
2022-08-04T01:50:24.381Z,26.50
2022-08-04T01:52:54.810Z,26.50
2022-08-04T01:55:23.325Z,26.50
2022-08-04T01:57:52.680Z,26.50
2022-08-04T02:00:23.112Z,26.40
2022-08-04T02:02:51.277Z,27.00
2022-08-04T02:05:21.112Z,26.40
2022-08-04T02:07:54.389Z,26.50
2022-08-04T02:10:35.578Z,26.40
2022-08-04T02:13:18.614Z,26.30
2022-08-04T02:16:03.065Z,26.30
2022-08-04T02:18:45.791Z,26.60
2022-08-04T02:21:16.717Z,26.30
2022-08-04T02:23:51.347Z,26.30
2022-08-04T02:26:22.522Z,26.30
2022-08-04T02:29:10.091Z,26.30
2022-08-04T02:31:56.547Z,26.30
2022-08-04T02:34:31.989Z,26.30
2022-08-04T02:37:00.411Z,26.40
2022-08-04T02:39:33.443Z,26.40
2022-08-04T02:42:17.297Z,26.30
2022-08-04T02:44:50.878Z,26.40
2022-08-04T02:47:22.437Z,26.90
2022-08-04T02:49:51.781Z,26.60
2022-08-04T02:52:21.052Z,26.30
2022-08-04T02:54:53.211Z,26.30
2022-08-04T02:57:26.771Z,26.30
2022-08-04T03:00:15.301Z,26.30
2022-08-04T03:03:03.289Z,26.20
2022-08-04T03:05:57.688Z,26.20
2022-08-04T03:08:43.374Z,26.20
2022-08-04T03:11:35.901Z,26.10
2022-08-04T03:14:22.396Z,26.10
2022-08-04T03:17:00.738Z,26.10
2022-08-04T03:19:53.115Z,26.70
2022-08-04T03:23:12.641Z,25.90
2022-08-04T03:25:57.238Z,25.90
2022-08-04T03:29:07.054Z,25.80
2022-08-04T03:32:02.550Z,25.80
2022-08-04T03:35:07.723Z,25.80
2022-08-04T03:38:04.573Z,25.80
2022-08-04T03:40:44.198Z,25.90
2022-08-04T03:43:57.115Z,25.80
2022-08-04T03:46:42.107Z,25.80
2022-08-04T03:49:28.149Z,25.80
2022-08-04T03:52:47.325Z,25.80
2022-08-04T03:55:35.905Z,25.80
2022-08-04T03:58:18.361Z,25.80
2022-08-04T04:01:00.826Z,25.70
2022-08-04T04:03:59.030Z,25.70
2022-08-04T04:06:38.585Z,25.60
2022-08-04T04:09:55.709Z,25.60
2022-08-04T04:12:34.415Z,25.60
2022-08-04T04:15:14.598Z,25.60
2022-08-04T04:18:03.034Z,25.60
2022-08-04T04:21:04.270Z,25.50
2022-08-04T04:24:02.851Z,25.50
2022-08-04T04:26:32.982Z,25.50
2022-08-04T04:29:22.743Z,25.50
2022-08-04T04:32:30.875Z,25.50
2022-08-04T04:35:19.869Z,25.40
2022-08-04T04:38:15.485Z,25.40
2022-08-04T04:41:25.435Z,25.40
2022-08-04T04:44:34.335Z,25.40
2022-08-04T04:47:09.921Z,25.40
2022-08-04T04:49:59.228Z,25.40
2022-08-04T04:52:48.025Z,25.60
2022-08-04T04:55:53.044Z,25.30
2022-08-04T04:58:22.561Z,25.30
2022-08-04T05:01:09.810Z,25.40
2022-08-04T05:04:00.665Z,25.40
2022-08-04T05:06:57.424Z,25.40
2022-08-04T05:09:52.070Z,25.40
2022-08-04T05:12:59.210Z,25.40
2022-08-04T05:15:23.881Z,26.20
2022-08-04T05:17:55.271Z,25.60
2022-08-04T05:20:28.641Z,25.70
2022-08-04T05:23:15.090Z,25.80
2022-08-04T05:26:00.306Z,25.80
2022-08-04T05:28:41.785Z,25.90
2022-08-04T05:31:18.796Z,26.10
2022-08-04T05:33:57.459Z,26.20
2022-08-04T05:36:40.873Z,26.20
2022-08-04T05:39:13.725Z,26.40
2022-08-04T05:41:45.530Z,26.50
2022-08-04T05:44:21.960Z,26.60
2022-08-04T05:46:54.202Z,26.70
2022-08-04T05:49:29.298Z,26.90
2022-08-04T05:52:02.060Z,27.00
2022-08-04T05:54:32.329Z,27.20
2022-08-04T05:57:01.358Z,27.40
2022-08-04T05:59:31.073Z,27.60
2022-08-04T06:02:00.866Z,27.70
2022-08-04T06:04:43.206Z,28.40
2022-08-04T06:07:14.279Z,27.90
2022-08-04T06:09:42.615Z,28.10
2022-08-04T06:12:23.431Z,28.30
2022-08-04T06:14:54.659Z,29.00
2022-08-04T06:19:57.379Z,28.80
2022-08-04T06:20:36.293Z,29.10
2022-08-04T06:23:10.309Z,29.50
2022-08-04T06:25:47.412Z,29.80
2022-08-04T06:28:16.469Z,30.20
2022-08-04T06:30:49.845Z,30.50
2022-08-04T06:33:26.849Z,30.90
2022-08-04T06:35:55.513Z,31.10
2022-08-04T06:38:25.091Z,31.40
2022-08-04T06:40:54.422Z,31.70
2022-08-04T06:43:22.848Z,32.00
2022-08-04T06:45:52.932Z,32.20
2022-08-04T06:48:21.631Z,32.60
2022-08-04T06:51:32.108Z,32.90
2022-08-04T06:53:49.307Z,33.20
2022-08-04T06:56:20.854Z,33.60
2022-08-04T06:58:50.662Z,33.80
2022-08-04T07:01:20.134Z,34.10
2022-08-04T07:03:50.886Z,34.50
2022-08-04T07:06:19.453Z,34.90
2022-08-04T07:08:46.924Z,35.20
2022-08-04T07:11:15.210Z,35.50
2022-08-04T07:13:45.388Z,35.80
2022-08-04T07:16:15.221Z,36.10
2022-08-04T07:18:43.871Z,36.30
2022-08-04T07:21:18.670Z,36.40
2022-08-04T07:23:46.170Z,36.60
2022-08-04T07:26:15.687Z,36.80
2022-08-04T07:28:43.412Z,37.00
2022-08-04T07:31:33.669Z,37.30
2022-08-04T07:34:11.530Z,37.40
2022-08-04T07:36:52.904Z,37.70
2022-08-04T07:39:29.555Z,37.90
2022-08-04T07:42:01.135Z,38.10
2022-08-04T07:44:30.052Z,38.70
2022-08-04T07:46:58.316Z,38.40
2022-08-04T07:49:55.472Z,38.70
2022-08-04T07:52:15.024Z,39.10
2022-08-04T07:54:42.874Z,39.10
2022-08-04T07:57:18.200Z,39.30
2022-08-04T07:59:50.277Z,39.60
2022-08-04T08:02:20.225Z,39.80
2022-08-04T08:04:55.352Z,40.00
2022-08-04T08:07:22.933Z,40.10
2022-08-04T08:09:50.748Z,40.40
2022-08-04T08:12:37.544Z,40.60
2022-08-04T08:15:10.550Z,40.70
2022-08-04T08:17:57.762Z,40.80
2022-08-04T08:20:30.509Z,41.00
2022-08-04T08:23:01.773Z,41.20
2022-08-04T08:25:33.711Z,41.30
2022-08-04T08:28:19.189Z,41.60
2022-08-04T08:30:52.859Z,41.90
2022-08-04T08:33:21.530Z,42.20
2022-08-04T08:36:09.989Z,42.40
2022-08-04T08:39:02.181Z,42.60
2022-08-04T08:41:48.085Z,42.80
2022-08-04T08:45:19.549Z,43.00
2022-08-04T08:48:11.004Z,43.20
2022-08-04T08:51:06.090Z,43.70
2022-08-04T08:53:58.938Z,44.00
2022-08-04T08:56:55.821Z,44.30
2022-08-04T08:59:48.666Z,44.50
2022-08-04T09:02:28.800Z,44.70
2022-08-04T09:05:33.773Z,45.10
2022-08-04T09:08:13.096Z,45.30
2022-08-04T09:11:08.722Z,45.70
2022-08-04T09:13:51.924Z,45.70
2022-08-04T09:16:30.384Z,45.80
2022-08-04T09:19:04.433Z,45.90
2022-08-04T09:21:59.698Z,46.10
2022-08-04T09:24:40.765Z,46.40
2022-08-04T09:27:30.673Z,46.60
2022-08-04T09:30:05.751Z,46.80
2022-08-04T09:32:39.235Z,47.00
2022-08-04T09:35:40.205Z,47.20
2022-08-04T09:38:20.101Z,47.40
2022-08-04T09:41:19.835Z,47.70
2022-08-04T09:44:48.802Z,47.60
2022-08-04T09:47:14.662Z,47.60
2022-08-04T09:50:04.688Z,47.40
2022-08-04T09:53:03.184Z,47.10
2022-08-04T09:55:53.654Z,46.90
2022-08-04T09:58:28.573Z,46.80
2022-08-04T10:01:07.953Z,46.40
2022-08-04T10:03:41.056Z,46.10
2022-08-04T10:06:28.077Z,45.90
2022-08-04T10:09:25.423Z,45.60
2022-08-04T10:11:56.810Z,45.30
2022-08-04T10:14:55.885Z,45.00
2022-08-04T10:17:27.483Z,44.70
2022-08-04T10:20:08.765Z,44.40
2022-08-04T10:23:10.609Z,43.90
2022-08-04T10:26:10.663Z,43.60
2022-08-04T10:28:50.975Z,43.20
2022-08-04T10:31:29.518Z,43.00
2022-08-04T10:33:59.720Z,42.70
2022-08-04T10:37:00.851Z,42.50
2022-08-04T10:40:14.689Z,42.30
2022-08-04T10:43:20.716Z,42.10
2022-08-04T10:46:01.696Z,41.90
2022-08-04T10:48:52.950Z,41.70
2022-08-04T10:51:27.042Z,41.60
2022-08-04T10:54:01.849Z,41.40
2022-08-04T10:56:41.734Z,41.40
2022-08-04T10:59:34.734Z,41.30
2022-08-04T11:02:34.332Z,41.20
2022-08-04T11:05:14.606Z,41.10
2022-08-04T11:07:45.246Z,41.00
2022-08-04T11:10:13.937Z,41.00
2022-08-04T11:12:43.553Z,40.90
2022-08-04T11:15:24.982Z,40.90
2022-08-04T11:18:01.683Z,40.80
2022-08-04T11:20:38.465Z,40.80
2022-08-04T11:23:13.922Z,40.70
2022-08-04T11:25:53.122Z,40.60
2022-08-04T11:28:30.418Z,40.50
2022-08-04T11:31:06.078Z,40.40
2022-08-04T11:34:10.698Z,40.40
2022-08-04T11:37:03.171Z,40.30
2022-08-04T11:39:43.593Z,40.30
2022-08-04T11:42:26.694Z,40.20
2022-08-04T11:45:10.615Z,40.10
2022-08-04T11:47:55.301Z,40.10
2022-08-04T11:50:53.568Z,40.10
2022-08-04T11:53:25.232Z,40.10
2022-08-04T11:56:08.045Z,40.20
2022-08-04T11:58:38.121Z,40.10
2022-08-04T12:01:23.163Z,40.20
2022-08-04T12:04:30.672Z,40.10
2022-08-04T12:07:33.127Z,40.10
2022-08-04T12:10:42.209Z,40.10
2022-08-04T12:13:29.965Z,40.10
2022-08-04T12:16:20.397Z,40.10
2022-08-04T12:19:01.447Z,40.10
2022-08-04T12:21:50.433Z,40.10
2022-08-04T12:24:41.501Z,40.00
2022-08-04T12:27:17.884Z,40.10
2022-08-04T12:29:54.311Z,40.10
2022-08-04T12:32:48.080Z,40.10
2022-08-04T12:35:23.468Z,40.10
2022-08-04T12:38:04.780Z,40.10
2022-08-04T12:40:51.317Z,40.10
2022-08-04T12:43:39.181Z,40.10
2022-08-04T12:46:09.472Z,40.10
2022-08-04T12:48:38.499Z,40.00
2022-08-04T12:52:06.086Z,40.00
2022-08-04T12:53:58.188Z,39.90
2022-08-04T12:56:28.292Z,39.90
2022-08-04T12:59:03.410Z,39.80
2022-08-04T13:02:08.381Z,39.80
2022-08-04T13:04:29.248Z,39.80
2022-08-04T13:07:01.283Z,39.70
2022-08-04T13:09:34.235Z,39.70
2022-08-04T13:12:12.290Z,39.60
2022-08-04T13:14:45.271Z,39.60
2022-08-04T13:17:12.762Z,39.70
2022-08-04T13:19:47.842Z,39.60
2022-08-04T13:22:29.709Z,39.70
2022-08-04T13:26:40.624Z,39.70
2022-08-04T13:27:48.665Z,39.80
2022-08-04T13:30:25.592Z,39.80
2022-08-04T13:33:00.869Z,39.90
2022-08-04T13:35:55.264Z,40.00
2022-08-04T13:38:18.037Z,40.00
2022-08-04T13:40:46.850Z,40.10
2022-08-04T13:44:15.495Z,40.10
2022-08-04T13:46:28.277Z,40.10
2022-08-04T13:49:26.095Z,40.10
2022-08-04T13:51:59.425Z,40.10
2022-08-04T13:54:43.992Z,40.10
2022-08-04T13:57:19.920Z,40.00
2022-08-04T13:59:57.163Z,40.10
2022-08-04T14:02:37.634Z,40.00
2022-08-04T14:05:18.384Z,40.40
2022-08-04T14:07:52.786Z,40.10
2022-08-04T14:10:20.882Z,40.10
2022-08-04T14:12:50.869Z,40.10
2022-08-04T14:16:02.076Z,40.10
2022-08-04T14:18:32.271Z,40.10
2022-08-04T14:21:02.566Z,40.20
2022-08-04T14:24:28.154Z,40.10
2022-08-04T14:27:01.813Z,40.10
2022-08-04T14:29:38.610Z,40.10
2022-08-04T14:32:13.006Z,40.10
2022-08-04T14:34:46.211Z,40.10
2022-08-04T14:37:19.232Z,40.10
2022-08-04T14:40:07.999Z,40.10
2022-08-04T14:42:55.430Z,40.10
2022-08-04T14:45:54.180Z,40.00
2022-08-04T14:48:23.163Z,40.00
2022-08-04T14:50:51.939Z,40.00
2022-08-04T14:53:22.134Z,40.00
2022-08-04T14:55:56.752Z,40.00
2022-08-04T14:58:36.010Z,40.00
2022-08-04T15:01:16.642Z,40.10
2022-08-04T15:03:50.058Z,40.10
2022-08-04T15:06:26.131Z,40.00
2022-08-04T15:08:56.765Z,40.00
2022-08-04T15:11:25.024Z,40.00
2022-08-04T15:13:53.687Z,40.00
2022-08-04T15:16:22.614Z,40.00
2022-08-04T15:18:51.006Z,39.90
2022-08-04T15:21:22.275Z,39.90
2022-08-04T15:23:50.783Z,39.90
2022-08-04T15:26:28.838Z,39.80
2022-08-04T15:29:07.146Z,39.80
2022-08-04T15:32:07.233Z,39.70
2022-08-04T15:34:27.529Z,39.70
2022-08-04T15:37:04.251Z,39.70
2022-08-04T15:39:49.879Z,39.70
2022-08-04T15:42:54.101Z,39.60
2022-08-04T15:46:37.122Z,39.50
2022-08-04T15:48:11.671Z,39.50
2022-08-04T15:50:57.964Z,39.50
2022-08-04T15:54:03.650Z,39.40
2022-08-04T15:56:48.313Z,39.30
2022-08-04T16:00:20.664Z,39.40
2022-08-04T16:02:48.181Z,39.30
2022-08-04T16:05:18.607Z,39.30
2022-08-04T16:08:14.827Z,39.20
2022-08-04T16:10:45.082Z,39.20
2022-08-04T16:13:14.927Z,39.20
2022-08-04T16:15:45.696Z,39.10
2022-08-04T16:18:31.257Z,39.10
2022-08-04T16:21:04.141Z,39.10
2022-08-04T16:23:56.046Z,39.10
2022-08-04T16:26:38.239Z,39.10
2022-08-04T16:29:28.318Z,39.10
2022-08-04T16:32:04.947Z,39.10
2022-08-04T16:34:47.789Z,39.10
2022-08-04T16:37:19.386Z,39.10
2022-08-04T16:39:51.142Z,39.10
2022-08-04T16:42:28.338Z,39.10
2022-08-04T16:45:12.136Z,39.00
2022-08-04T16:47:49.619Z,39.00
2022-08-04T16:50:22.954Z,39.00
2022-08-04T16:52:55.323Z,39.00
2022-08-04T16:55:25.398Z,39.00
2022-08-04T16:57:55.048Z,39.00
2022-08-04T17:00:36.799Z,39.00
2022-08-04T17:03:10.410Z,39.00
2022-08-04T17:05:40.403Z,39.10
2022-08-04T17:10:57.123Z,39.00
2022-08-04T17:14:03.101Z,39.00
2022-08-04T17:16:23.677Z,39.00
2022-08-04T17:18:55.612Z,39.00
2022-08-04T17:21:26.252Z,38.90
2022-08-04T17:24:16.114Z,38.90
2022-08-04T17:26:51.782Z,38.80
2022-08-04T17:29:44.430Z,38.80
2022-08-04T17:32:17.167Z,38.70
2022-08-04T17:34:53.274Z,38.80
2022-08-04T17:37:39.371Z,38.70
2022-08-04T17:40:10.743Z,38.70
2022-08-04T17:42:40.212Z,38.60
2022-08-04T17:48:24.761Z,38.60
2022-08-04T17:50:52.553Z,38.50
2022-08-04T17:54:02.828Z,38.50
2022-08-04T17:56:36.410Z,38.50
2022-08-04T17:59:56.064Z,38.50
2022-08-04T18:05:50.159Z,38.50
2022-08-04T18:08:45.948Z,38.40
2022-08-04T18:11:22.103Z,38.40
2022-08-04T18:13:57.085Z,38.30
2022-08-04T18:16:25.104Z,38.40
2022-08-04T18:19:11.628Z,38.20
2022-08-04T18:21:46.639Z,38.10
2022-08-04T18:24:34.175Z,38.00
2022-08-04T18:27:06.602Z,38.00
2022-08-04T18:29:39.147Z,37.90
2022-08-04T18:32:09.081Z,37.90
2022-08-04T18:34:40.733Z,37.80
2022-08-04T18:38:03.415Z,37.70
2022-08-04T18:40:26.497Z,37.70
2022-08-04T18:43:00.082Z,37.70
2022-08-04T18:45:33.938Z,37.60
2022-08-04T18:48:04.329Z,37.60
2022-08-04T18:51:23.039Z,37.60
2022-08-04T18:53:34.848Z,37.50
2022-08-04T18:56:19.922Z,37.40
2022-08-04T18:58:54.613Z,37.40
2022-08-04T19:01:29.543Z,37.30
2022-08-04T19:04:04.909Z,37.30
2022-08-04T19:07:30.050Z,37.20
2022-08-04T19:10:26.531Z,37.20
2022-08-04T19:12:54.703Z,37.10
2022-08-04T19:15:33.901Z,37.10
2022-08-04T19:18:06.899Z,37.00
2022-08-04T19:20:37.072Z,37.00
2022-08-04T19:24:11.358Z,37.00
2022-08-04T19:26:02.648Z,36.90
2022-08-04T19:28:34.904Z,36.80
2022-08-04T19:31:06.135Z,36.80
2022-08-04T19:33:58.302Z,36.70
2022-08-04T19:36:28.522Z,36.60
2022-08-04T19:38:57.867Z,36.50
2022-08-04T19:41:27.145Z,36.50
2022-08-04T19:43:55.639Z,36.40
2022-08-04T19:46:24.754Z,36.30
2022-08-04T19:48:59.797Z,36.20
2022-08-04T19:51:33.545Z,36.20
2022-08-04T19:54:02.921Z,36.20
2022-08-04T19:56:40.162Z,36.10
2022-08-04T19:59:12.783Z,36.00
2022-08-04T20:01:45.624Z,35.90
2022-08-04T20:04:14.748Z,35.80
2022-08-04T20:06:42.909Z,35.80
2022-08-04T20:09:26.149Z,35.70
2022-08-04T20:11:56.270Z,35.90
2022-08-04T20:14:43.801Z,35.50
2022-08-04T20:17:11.172Z,35.40
2022-08-04T20:19:39.435Z,35.40
2022-08-04T20:22:50.797Z,35.30
2022-08-04T20:25:01.121Z,35.20
2022-08-04T20:28:00.215Z,35.20
2022-08-04T20:30:29.658Z,35.20
2022-08-04T20:32:57.697Z,35.20
2022-08-04T20:35:26.746Z,35.10
2022-08-04T20:38:01.008Z,35.00
2022-08-04T20:40:30.343Z,35.00
2022-08-04T20:42:59.162Z,34.90
2022-08-04T20:45:55.836Z,34.90
2022-08-04T20:48:14.263Z,34.90
2022-08-04T20:50:45.132Z,34.80
2022-08-04T20:56:02.290Z,34.70
2022-08-04T20:58:30.043Z,34.70
2022-08-04T21:00:57.484Z,34.60
2022-08-04T21:03:38.733Z,34.80
2022-08-04T21:06:12.349Z,34.50
2022-08-04T21:08:39.661Z,34.40
2022-08-04T21:11:08.947Z,34.40
2022-08-04T21:13:50.883Z,34.30
2022-08-04T21:16:55.520Z,34.70
2022-08-04T21:19:13.144Z,34.20
2022-08-04T21:21:43.403Z,34.10
2022-08-04T21:24:26.004Z,34.00
2022-08-04T21:26:56.753Z,34.00
2022-08-04T21:29:34.756Z,33.90
2022-08-04T21:32:05.970Z,33.80
2022-08-04T21:34:39.482Z,33.80
2022-08-04T21:37:10.247Z,33.80
2022-08-04T21:39:50.355Z,34.30
2022-08-04T21:42:29.539Z,33.70
2022-08-04T21:45:10.486Z,33.70
2022-08-04T21:47:46.614Z,33.60
2022-08-04T21:50:19.597Z,33.60
2022-08-04T21:52:49.125Z,33.60
2022-08-04T21:55:17.695Z,33.60
2022-08-04T21:57:46.695Z,33.60
2022-08-04T22:00:18.417Z,33.60
2022-08-04T22:02:53.224Z,33.50
2022-08-04T22:05:22.347Z,33.50
2022-08-04T22:07:51.658Z,33.50
2022-08-04T22:10:32.133Z,33.50
2022-08-04T22:13:02.928Z,33.50
2022-08-04T22:16:03.576Z,33.40
2022-08-04T22:18:24.401Z,33.40
2022-08-04T22:20:54.799Z,33.30
2022-08-04T22:23:25.197Z,33.30
2022-08-04T22:25:55.440Z,33.30
2022-08-04T22:28:29.227Z,33.30
2022-08-04T22:30:57.437Z,33.30
2022-08-04T22:33:25.197Z,33.30
2022-08-04T22:36:14.701Z,33.30
2022-08-04T22:38:48.495Z,33.30
2022-08-04T22:41:21.448Z,33.30
2022-08-04T22:44:01.138Z,33.20
2022-08-04T22:46:30.187Z,33.10
2022-08-04T22:48:57.814Z,33.10
2022-08-04T22:51:26.959Z,33.10
2022-08-04T22:53:55.280Z,33.50
2022-08-04T22:56:37.929Z,33.00
2022-08-04T22:59:10.955Z,33.10
2022-08-04T23:02:00.735Z,33.00
2022-08-04T23:04:27.628Z,33.00
2022-08-04T23:06:54.993Z,33.10
2022-08-04T23:09:26.885Z,33.10
2022-08-04T23:12:25.089Z,33.00
2022-08-04T23:14:53.649Z,32.90
2022-08-04T23:17:23.410Z,32.90
2022-08-04T23:19:57.973Z,32.90
2022-08-04T23:22:41.454Z,32.80
2022-08-04T23:25:15.095Z,32.80
2022-08-04T23:27:51.024Z,32.70
2022-08-04T23:30:24.650Z,32.70
2022-08-04T23:32:56.889Z,32.60
2022-08-04T23:35:24.510Z,32.60
2022-08-04T23:37:57.087Z,32.50
2022-08-04T23:40:33.435Z,32.40
2022-08-04T23:43:17.149Z,32.40
2022-08-04T23:46:07.439Z,32.40
2022-08-04T23:48:34.379Z,32.30
2022-08-04T23:51:04.408Z,32.20
2022-08-04T23:54:02.225Z,32.20
2022-08-04T23:56:32.053Z,32.10
2022-08-04T23:59:03.542Z,32.10
